sensor_id;sensor_type;location;lat;lon;timestamp;P1;durP1;ratioP1;P2;durP2;ratioP2
8113;SDS011;4099;52.684;9.918;2023-02-01T00:03:03;11.93;;;2.83;;
8113;SDS011;4099;52.684;9.918;2023-02-01T00:08:11;14.93;;;3.43;;
8113;SDS011;4099;52.684;9.918;2023-02-01T00:13:22;17.80;;;4.00;;
8113;SDS011;4099;52.684;9.918;2023-02-01T00:18:26;12.73;;;3.77;;
8113;SDS011;4099;52.684;9.918;2023-02-01T00:23:31;18.00;;;3.53;;
8113;SDS011;4099;52.684;9.918;2023-02-01T00:28:39;17.43;;;3.57;;
8113;SDS011;4099;52.684;9.918;2023-02-01T00:33:48;18.57;;;3.73;;
8113;SDS011;4099;52.684;9.918;2023-02-01T00:38:52;10.77;;;2.73;;
8113;SDS011;4099;52.684;9.918;2023-02-01T00:43:55;16.47;;;3.53;;
8113;SDS011;4099;52.684;9.918;2023-02-01T00:48:59;14.13;;;3.77;;
8113;SDS011;4099;52.684;9.918;2023-02-01T00:54:04;14.47;;;3.33;;
8113;SDS011;4099;52.684;9.918;2023-02-01T00:59:10;17.70;;;3.93;;
8113;SDS011;4099;52.684;9.918;2023-02-01T01:04:22;14.27;;;3.97;;
8113;SDS011;4099;52.684;9.918;2023-02-01T01:09:25;16.40;;;3.47;;
8113;SDS011;4099;52.684;9.918;2023-02-01T01:14:30;16.50;;;4.10;;
8113;SDS011;4099;52.684;9.918;2023-02-01T01:19:37;20.10;;;4.30;;
8113;SDS011;4099;52.684;9.918;2023-02-01T01:24:40;14.57;;;3.30;;
8113;SDS011;4099;52.684;9.918;2023-02-01T01:29:43;14.57;;;3.73;;
8113;SDS011;4099;52.684;9.918;2023-02-01T01:34:49;15.83;;;4.13;;
8113;SDS011;4099;52.684;9.918;2023-02-01T01:39:56;15.10;;;3.70;;
8113;SDS011;4099;52.684;9.918;2023-02-01T01:45:04;16.40;;;3.70;;
8113;SDS011;4099;52.684;9.918;2023-02-01T01:50:26;11.23;;;3.70;;
8113;SDS011;4099;52.684;9.918;2023-02-01T01:55:32;17.10;;;3.93;;
8113;SDS011;4099;52.684;9.918;2023-02-01T02:00:42;16.57;;;3.50;;
8113;SDS011;4099;52.684;9.918;2023-02-01T02:05:50;17.37;;;3.67;;
8113;SDS011;4099;52.684;9.918;2023-02-01T02:10:56;16.27;;;3.43;;
8113;SDS011;4099;52.684;9.918;2023-02-01T02:21:45;12.00;;;3.80;;
8113;SDS011;4099;52.684;9.918;2023-02-01T02:27:11;15.60;;;3.73;;
8113;SDS011;4099;52.684;9.918;2023-02-01T02:38:17;18.10;;;4.03;;
8113;SDS011;4099;52.684;9.918;2023-02-01T02:43:29;18.90;;;4.27;;
8113;SDS011;4099;52.684;9.918;2023-02-01T02:48:59;18.03;;;3.57;;
8113;SDS011;4099;52.684;9.918;2023-02-01T02:54:06;15.47;;;2.87;;
8113;SDS011;4099;52.684;9.918;2023-02-01T02:59:29;13.37;;;3.20;;
8113;SDS011;4099;52.684;9.918;2023-02-01T03:04:56;12.30;;;3.40;;
8113;SDS011;4099;52.684;9.918;2023-02-01T03:10:10;11.40;;;3.47;;
8113;SDS011;4099;52.684;9.918;2023-02-01T03:15:21;9.70;;;2.77;;
8113;SDS011;4099;52.684;9.918;2023-02-01T03:20:39;18.60;;;4.50;;
8113;SDS011;4099;52.684;9.918;2023-02-01T03:25:51;23.40;;;3.53;;
8113;SDS011;4099;52.684;9.918;2023-02-01T03:30:57;14.10;;;3.30;;
8113;SDS011;4099;52.684;9.918;2023-02-01T03:36:15;15.90;;;3.33;;
8113;SDS011;4099;52.684;9.918;2023-02-01T03:41:27;14.83;;;3.23;;
8113;SDS011;4099;52.684;9.918;2023-02-01T03:46:37;14.40;;;3.70;;
8113;SDS011;4099;52.684;9.918;2023-02-01T03:51:49;14.60;;;3.97;;
8113;SDS011;4099;52.684;9.918;2023-02-01T03:56:56;16.43;;;3.50;;
8113;SDS011;4099;52.684;9.918;2023-02-01T04:02:16;17.67;;;4.07;;
8113;SDS011;4099;52.684;9.918;2023-02-01T04:07:26;12.83;;;3.80;;
8113;SDS011;4099;52.684;9.918;2023-02-01T04:12:29;11.40;;;3.13;;
8113;SDS011;4099;52.684;9.918;2023-02-01T04:17:32;18.50;;;5.17;;
8113;SDS011;4099;52.684;9.918;2023-02-01T04:22:48;11.97;;;3.17;;
8113;SDS011;4099;52.684;9.918;2023-02-01T04:27:53;14.07;;;3.40;;
8113;SDS011;4099;52.684;9.918;2023-02-01T04:33:00;15.17;;;3.27;;
8113;SDS011;4099;52.684;9.918;2023-02-01T04:38:08;14.33;;;4.30;;
8113;SDS011;4099;52.684;9.918;2023-02-01T04:43:11;12.60;;;3.53;;
8113;SDS011;4099;52.684;9.918;2023-02-01T04:48:17;7.70;;;2.87;;
8113;SDS011;4099;52.684;9.918;2023-02-01T04:53:27;13.97;;;4.73;;
8113;SDS011;4099;52.684;9.918;2023-02-01T04:58:33;16.70;;;3.97;;
8113;SDS011;4099;52.684;9.918;2023-02-01T05:03:36;17.00;;;4.00;;
8113;SDS011;4099;52.684;9.918;2023-02-01T05:08:40;14.13;;;4.47;;
8113;SDS011;4099;52.684;9.918;2023-02-01T05:13:45;8.80;;;3.63;;
8113;SDS011;4099;52.684;9.918;2023-02-01T05:18:52;17.37;;;3.90;;
8113;SDS011;4099;52.684;9.918;2023-02-01T05:23:57;12.67;;;4.13;;
8113;SDS011;4099;52.684;9.918;2023-02-01T05:29:14;13.57;;;4.03;;
8113;SDS011;4099;52.684;9.918;2023-02-01T05:34:16;14.37;;;4.13;;
8113;SDS011;4099;52.684;9.918;2023-02-01T05:39:23;13.63;;;4.70;;
8113;SDS011;4099;52.684;9.918;2023-02-01T05:44:34;9.87;;;4.30;;
8113;SDS011;4099;52.684;9.918;2023-02-01T05:49:37;11.23;;;4.60;;
8113;SDS011;4099;52.684;9.918;2023-02-01T05:54:44;13.90;;;4.30;;
8113;SDS011;4099;52.684;9.918;2023-02-01T06:00:02;12.10;;;4.90;;
8113;SDS011;4099;52.684;9.918;2023-02-01T06:05:12;16.63;;;5.97;;
8113;SDS011;4099;52.684;9.918;2023-02-01T06:10:20;17.50;;;5.60;;
8113;SDS011;4099;52.684;9.918;2023-02-01T06:15:24;19.20;;;5.23;;
8113;SDS011;4099;52.684;9.918;2023-02-01T06:20:27;18.40;;;5.40;;
8113;SDS011;4099;52.684;9.918;2023-02-01T06:25:33;13.93;;;5.70;;
8113;SDS011;4099;52.684;9.918;2023-02-01T06:30:36;11.13;;;4.33;;
8113;SDS011;4099;52.684;9.918;2023-02-01T06:35:42;10.70;;;4.03;;
8113;SDS011;4099;52.684;9.918;2023-02-01T06:40:53;9.13;;;4.77;;
8113;SDS011;4099;52.684;9.918;2023-02-01T06:46:00;7.30;;;3.30;;
8113;SDS011;4099;52.684;9.918;2023-02-01T06:51:05;9.73;;;3.83;;
8113;SDS011;4099;52.684;9.918;2023-02-01T06:56:19;11.57;;;3.93;;
8113;SDS011;4099;52.684;9.918;2023-02-01T07:01:23;12.57;;;5.17;;
8113;SDS011;4099;52.684;9.918;2023-02-01T07:06:26;14.53;;;5.87;;
8113;SDS011;4099;52.684;9.918;2023-02-01T07:11:31;10.13;;;5.73;;
8113;SDS011;4099;52.684;9.918;2023-02-01T07:16:39;15.27;;;6.33;;
8113;SDS011;4099;52.684;9.918;2023-02-01T07:21:43;13.97;;;6.00;;
8113;SDS011;4099;52.684;9.918;2023-02-01T07:26:51;16.53;;;5.80;;
8113;SDS011;4099;52.684;9.918;2023-02-01T07:32:05;19.13;;;6.13;;
8113;SDS011;4099;52.684;9.918;2023-02-01T07:37:08;12.27;;;5.50;;
8113;SDS011;4099;52.684;9.918;2023-02-01T07:42:18;12.80;;;4.00;;
8113;SDS011;4099;52.684;9.918;2023-02-01T07:47:26;12.43;;;4.93;;
8113;SDS011;4099;52.684;9.918;2023-02-01T07:52:30;12.13;;;4.70;;
8113;SDS011;4099;52.684;9.918;2023-02-01T07:57:36;15.33;;;4.77;;
8113;SDS011;4099;52.684;9.918;2023-02-01T08:02:42;16.43;;;5.60;;
8113;SDS011;4099;52.684;9.918;2023-02-01T08:07:48;10.63;;;3.83;;
8113;SDS011;4099;52.684;9.918;2023-02-01T08:12:59;10.20;;;4.43;;
8113;SDS011;4099;52.684;9.918;2023-02-01T08:18:10;8.90;;;4.07;;
8113;SDS011;4099;52.684;9.918;2023-02-01T08:23:19;16.53;;;5.90;;
8113;SDS011;4099;52.684;9.918;2023-02-01T08:28:29;12.17;;;3.33;;
8113;SDS011;4099;52.684;9.918;2023-02-01T08:33:34;10.97;;;3.97;;
8113;SDS011;4099;52.684;9.918;2023-02-01T08:38:52;13.77;;;5.30;;
8113;SDS011;4099;52.684;9.918;2023-02-01T08:43:58;8.43;;;3.47;;
8113;SDS011;4099;52.684;9.918;2023-02-01T08:49:04;13.03;;;4.57;;
8113;SDS011;4099;52.684;9.918;2023-02-01T08:54:11;14.87;;;4.13;;
8113;SDS011;4099;52.684;9.918;2023-02-01T08:59:22;14.27;;;3.80;;
8113;SDS011;4099;52.684;9.918;2023-02-01T09:04:36;7.77;;;3.17;;
8113;SDS011;4099;52.684;9.918;2023-02-01T09:09:42;10.37;;;2.93;;
8113;SDS011;4099;52.684;9.918;2023-02-01T09:14:47;6.37;;;2.50;;
8113;SDS011;4099;52.684;9.918;2023-02-01T09:19:53;10.93;;;2.80;;
8113;SDS011;4099;52.684;9.918;2023-02-01T09:24:56;7.03;;;3.27;;
8113;SDS011;4099;52.684;9.918;2023-02-01T09:30:02;10.77;;;4.13;;
8113;SDS011;4099;52.684;9.918;2023-02-01T09:35:06;13.90;;;4.13;;
8113;SDS011;4099;52.684;9.918;2023-02-01T09:40:13;19.70;;;5.70;;
8113;SDS011;4099;52.684;9.918;2023-02-01T09:45:21;12.40;;;4.97;;
8113;SDS011;4099;52.684;9.918;2023-02-01T09:50:32;18.97;;;6.13;;
8113;SDS011;4099;52.684;9.918;2023-02-01T09:55:40;15.43;;;4.97;;
8113;SDS011;4099;52.684;9.918;2023-02-01T10:00:58;18.27;;;5.33;;
8113;SDS011;4099;52.684;9.918;2023-02-01T10:11:48;14.53;;;5.70;;
8113;SDS011;4099;52.684;9.918;2023-02-01T10:17:07;17.20;;;4.97;;
8113;SDS011;4099;52.684;9.918;2023-02-01T10:22:26;18.80;;;6.47;;
8113;SDS011;4099;52.684;9.918;2023-02-01T10:33:12;16.20;;;4.37;;
8113;SDS011;4099;52.684;9.918;2023-02-01T10:38:20;13.63;;;4.27;;
8113;SDS011;4099;52.684;9.918;2023-02-01T10:43:27;19.90;;;5.83;;
8113;SDS011;4099;52.684;9.918;2023-02-01T10:48:37;10.37;;;3.73;;
8113;SDS011;4099;52.684;9.918;2023-02-01T10:53:46;16.27;;;4.23;;
8113;SDS011;4099;52.684;9.918;2023-02-01T10:58:59;13.57;;;4.10;;
8113;SDS011;4099;52.684;9.918;2023-02-01T11:04:18;12.60;;;4.00;;
8113;SDS011;4099;52.684;9.918;2023-02-01T11:09:26;14.03;;;3.73;;
8113;SDS011;4099;52.684;9.918;2023-02-01T11:14:34;14.77;;;4.30;;
8113;SDS011;4099;52.684;9.918;2023-02-01T11:19:55;17.87;;;3.90;;
8113;SDS011;4099;52.684;9.918;2023-02-01T11:25:08;13.00;;;4.10;;
8113;SDS011;4099;52.684;9.918;2023-02-01T11:30:15;14.20;;;3.73;;
8113;SDS011;4099;52.684;9.918;2023-02-01T11:35:33;10.03;;;3.63;;
8113;SDS011;4099;52.684;9.918;2023-02-01T11:40:41;8.40;;;3.30;;
8113;SDS011;4099;52.684;9.918;2023-02-01T11:46:02;12.17;;;3.93;;
8113;SDS011;4099;52.684;9.918;2023-02-01T11:51:44;8.60;;;4.23;;
8113;SDS011;4099;52.684;9.918;2023-02-01T11:57:14;16.07;;;4.20;;
8113;SDS011;4099;52.684;9.918;2023-02-01T12:02:38;11.07;;;3.90;;
8113;SDS011;4099;52.684;9.918;2023-02-01T12:13:52;12.43;;;3.17;;
8113;SDS011;4099;52.684;9.918;2023-02-01T12:19:24;12.60;;;3.20;;
8113;SDS011;4099;52.684;9.918;2023-02-01T12:24:42;10.57;;;4.10;;
8113;SDS011;4099;52.684;9.918;2023-02-01T12:30:31;6.73;;;3.60;;
8113;SDS011;4099;52.684;9.918;2023-02-01T12:36:03;11.83;;;3.67;;
8113;SDS011;4099;52.684;9.918;2023-02-01T12:41:29;13.63;;;4.83;;
8113;SDS011;4099;52.684;9.918;2023-02-01T12:46:56;10.80;;;4.80;;
8113;SDS011;4099;52.684;9.918;2023-02-01T12:52:05;12.33;;;3.97;;
8113;SDS011;4099;52.684;9.918;2023-02-01T12:57:17;12.50;;;4.00;;
8113;SDS011;4099;52.684;9.918;2023-02-01T13:02:33;12.07;;;4.13;;
8113;SDS011;4099;52.684;9.918;2023-02-01T13:07:44;5.87;;;3.23;;
8113;SDS011;4099;52.684;9.918;2023-02-01T13:13:08;7.77;;;3.23;;
8113;SDS011;4099;52.684;9.918;2023-02-01T13:18:32;3.90;;;2.30;;
8113;SDS011;4099;52.684;9.918;2023-02-01T13:23:43;3.37;;;1.17;;
8113;SDS011;4099;52.684;9.918;2023-02-01T13:28:51;3.10;;;2.80;;
8113;SDS011;4099;52.684;9.918;2023-02-01T13:45:28;2.80;;;1.23;;
8113;SDS011;4099;52.684;9.918;2023-02-01T13:50:41;2.27;;;1.30;;
8113;SDS011;4099;52.684;9.918;2023-02-01T13:55:46;1.93;;;1.13;;
8113;SDS011;4099;52.684;9.918;2023-02-01T14:06:44;1.53;;;1.43;;
8113;SDS011;4099;52.684;9.918;2023-02-01T14:11:53;2.53;;;1.63;;
8113;SDS011;4099;52.684;9.918;2023-02-01T14:22:41;5.13;;;3.37;;
8113;SDS011;4099;52.684;9.918;2023-02-01T14:27:47;3.13;;;1.50;;
8113;SDS011;4099;52.684;9.918;2023-02-01T14:32:54;4.20;;;1.87;;
8113;SDS011;4099;52.684;9.918;2023-02-01T14:37:59;2.10;;;1.63;;
8113;SDS011;4099;52.684;9.918;2023-02-01T14:43:13;3.07;;;1.37;;
8113;SDS011;4099;52.684;9.918;2023-02-01T14:53:51;5.57;;;2.10;;
8113;SDS011;4099;52.684;9.918;2023-02-01T14:59:06;3.83;;;1.60;;
8113;SDS011;4099;52.684;9.918;2023-02-01T15:04:19;4.53;;;1.70;;
8113;SDS011;4099;52.684;9.918;2023-02-01T15:09:36;3.03;;;1.90;;
8113;SDS011;4099;52.684;9.918;2023-02-01T15:14:48;5.43;;;2.00;;
8113;SDS011;4099;52.684;9.918;2023-02-01T15:20:14;6.70;;;2.40;;
8113;SDS011;4099;52.684;9.918;2023-02-01T15:25:29;9.87;;;2.63;;
8113;SDS011;4099;52.684;9.918;2023-02-01T15:30:51;6.03;;;2.73;;
8113;SDS011;4099;52.684;9.918;2023-02-01T15:36:18;7.07;;;2.37;;
8113;SDS011;4099;52.684;9.918;2023-02-01T15:41:35;7.03;;;2.30;;
8113;SDS011;4099;52.684;9.918;2023-02-01T15:46:48;6.97;;;2.03;;
8113;SDS011;4099;52.684;9.918;2023-02-01T15:52:00;5.00;;;2.27;;
8113;SDS011;4099;52.684;9.918;2023-02-01T15:57:12;11.33;;;2.27;;
8113;SDS011;4099;52.684;9.918;2023-02-01T16:02:37;6.27;;;2.60;;
8113;SDS011;4099;52.684;9.918;2023-02-01T16:07:59;9.23;;;3.43;;
8113;SDS011;4099;52.684;9.918;2023-02-01T16:13:15;10.93;;;2.97;;
8113;SDS011;4099;52.684;9.918;2023-02-01T16:18:27;11.10;;;3.30;;
8113;SDS011;4099;52.684;9.918;2023-02-01T16:23:34;8.30;;;2.37;;
8113;SDS011;4099;52.684;9.918;2023-02-01T16:28:37;9.10;;;2.50;;
8113;SDS011;4099;52.684;9.918;2023-02-01T16:33:42;10.33;;;3.13;;
8113;SDS011;4099;52.684;9.918;2023-02-01T16:38:47;10.50;;;3.00;;
8113;SDS011;4099;52.684;9.918;2023-02-01T16:43:50;12.07;;;3.67;;
8113;SDS011;4099;52.684;9.918;2023-02-01T16:48:59;12.77;;;3.93;;
8113;SDS011;4099;52.684;9.918;2023-02-01T16:54:07;13.50;;;4.07;;
8113;SDS011;4099;52.684;9.918;2023-02-01T16:59:14;14.73;;;6.60;;
8113;SDS011;4099;52.684;9.918;2023-02-01T17:04:18;9.83;;;4.63;;
8113;SDS011;4099;52.684;9.918;2023-02-01T17:09:22;11.10;;;3.20;;
8113;SDS011;4099;52.684;9.918;2023-02-01T17:14:26;9.40;;;2.97;;
8113;SDS011;4099;52.684;9.918;2023-02-01T17:25:15;10.37;;;3.40;;
8113;SDS011;4099;52.684;9.918;2023-02-01T17:30:26;8.10;;;3.83;;
8113;SDS011;4099;52.684;9.918;2023-02-01T17:35:36;7.57;;;2.10;;
8113;SDS011;4099;52.684;9.918;2023-02-01T17:40:39;13.10;;;2.43;;
8113;SDS011;4099;52.684;9.918;2023-02-01T17:45:45;8.80;;;2.20;;
8113;SDS011;4099;52.684;9.918;2023-02-01T17:50:53;9.07;;;2.87;;
8113;SDS011;4099;52.684;9.918;2023-02-01T17:56:02;7.67;;;3.00;;
8113;SDS011;4099;52.684;9.918;2023-02-01T18:01:14;7.87;;;4.03;;
8113;SDS011;4099;52.684;9.918;2023-02-01T18:06:23;17.03;;;7.77;;
8113;SDS011;4099;52.684;9.918;2023-02-01T18:11:27;12.43;;;7.60;;
8113;SDS011;4099;52.684;9.918;2023-02-01T18:16:33;9.80;;;3.50;;
8113;SDS011;4099;52.684;9.918;2023-02-01T18:21:39;13.10;;;3.87;;
8113;SDS011;4099;52.684;9.918;2023-02-01T18:26:51;7.50;;;2.23;;
8113;SDS011;4099;52.684;9.918;2023-02-01T18:31:57;14.87;;;4.67;;
8113;SDS011;4099;52.684;9.918;2023-02-01T18:37:02;8.23;;;4.83;;
8113;SDS011;4099;52.684;9.918;2023-02-01T18:42:05;10.70;;;2.77;;
8113;SDS011;4099;52.684;9.918;2023-02-01T18:47:14;13.73;;;5.63;;
8113;SDS011;4099;52.684;9.918;2023-02-01T18:52:18;8.13;;;3.77;;
8113;SDS011;4099;52.684;9.918;2023-02-01T18:57:21;11.80;;;3.90;;
8113;SDS011;4099;52.684;9.918;2023-02-01T19:02:24;12.17;;;3.47;;
8113;SDS011;4099;52.684;9.918;2023-02-01T19:07:34;8.47;;;3.00;;
8113;SDS011;4099;52.684;9.918;2023-02-01T19:12:42;9.57;;;2.73;;
8113;SDS011;4099;52.684;9.918;2023-02-01T19:17:46;20.60;;;3.70;;
8113;SDS011;4099;52.684;9.918;2023-02-01T19:22:52;13.80;;;4.07;;
8113;SDS011;4099;52.684;9.918;2023-02-01T19:27:55;15.83;;;4.00;;
8113;SDS011;4099;52.684;9.918;2023-02-01T19:33:00;16.77;;;3.87;;
8113;SDS011;4099;52.684;9.918;2023-02-01T19:38:06;20.13;;;4.23;;
8113;SDS011;4099;52.684;9.918;2023-02-01T19:43:09;19.47;;;4.33;;
8113;SDS011;4099;52.684;9.918;2023-02-01T19:48:13;15.43;;;3.37;;
8113;SDS011;4099;52.684;9.918;2023-02-01T19:53:20;18.90;;;4.47;;
8113;SDS011;4099;52.684;9.918;2023-02-01T19:58:32;14.60;;;3.43;;
8113;SDS011;4099;52.684;9.918;2023-02-01T20:03:37;15.33;;;3.23;;
8113;SDS011;4099;52.684;9.918;2023-02-01T20:08:41;15.03;;;3.10;;
8113;SDS011;4099;52.684;9.918;2023-02-01T20:13:44;19.20;;;4.00;;
8113;SDS011;4099;52.684;9.918;2023-02-01T20:18:47;16.60;;;3.73;;
8113;SDS011;4099;52.684;9.918;2023-02-01T20:23:52;16.70;;;3.80;;
8113;SDS011;4099;52.684;9.918;2023-02-01T20:28:56;20.47;;;4.43;;
8113;SDS011;4099;52.684;9.918;2023-02-01T20:33:59;19.97;;;5.30;;
8113;SDS011;4099;52.684;9.918;2023-02-01T20:39:13;22.97;;;5.40;;
8113;SDS011;4099;52.684;9.918;2023-02-01T20:44:19;19.20;;;4.33;;
8113;SDS011;4099;52.684;9.918;2023-02-01T20:49:22;18.23;;;4.13;;
8113;SDS011;4099;52.684;9.918;2023-02-01T20:54:26;20.50;;;4.40;;
8113;SDS011;4099;52.684;9.918;2023-02-01T21:11:58;18.03;;;4.17;;
8113;SDS011;4099;52.684;9.918;2023-02-01T21:17:05;14.43;;;3.93;;
8113;SDS011;4099;52.684;9.918;2023-02-01T21:22:08;17.73;;;3.70;;
8113;SDS011;4099;52.684;9.918;2023-02-01T21:27:14;18.03;;;3.70;;
8113;SDS011;4099;52.684;9.918;2023-02-01T21:32:21;12.33;;;3.20;;
8113;SDS011;4099;52.684;9.918;2023-02-01T21:37:25;16.70;;;3.03;;
8113;SDS011;4099;52.684;9.918;2023-02-01T21:42:38;17.10;;;3.10;;
8113;SDS011;4099;52.684;9.918;2023-02-01T21:47:44;12.60;;;3.33;;
8113;SDS011;4099;52.684;9.918;2023-02-01T21:52:47;12.83;;;3.10;;
8113;SDS011;4099;52.684;9.918;2023-02-01T21:57:51;15.33;;;3.40;;
8113;SDS011;4099;52.684;9.918;2023-02-01T22:02:59;11.77;;;2.57;;
8113;SDS011;4099;52.684;9.918;2023-02-01T22:08:02;14.10;;;3.23;;
8113;SDS011;4099;52.684;9.918;2023-02-01T22:13:10;12.23;;;2.57;;
8113;SDS011;4099;52.684;9.918;2023-02-01T22:18:13;13.17;;;3.23;;
8113;SDS011;4099;52.684;9.918;2023-02-01T22:23:20;10.67;;;3.10;;
8113;SDS011;4099;52.684;9.918;2023-02-01T22:28:29;13.57;;;3.10;;
8113;SDS011;4099;52.684;9.918;2023-02-01T22:33:35;15.70;;;3.77;;
8113;SDS011;4099;52.684;9.918;2023-02-01T22:38:40;22.63;;;3.93;;
8113;SDS011;4099;52.684;9.918;2023-02-01T22:43:45;12.37;;;3.83;;
8113;SDS011;4099;52.684;9.918;2023-02-01T22:48:55;13.37;;;3.20;;
8113;SDS011;4099;52.684;9.918;2023-02-01T22:53:58;14.93;;;3.47;;
8113;SDS011;4099;52.684;9.918;2023-02-01T22:59:05;13.30;;;3.10;;
8113;SDS011;4099;52.684;9.918;2023-02-01T23:04:13;12.27;;;2.80;;
8113;SDS011;4099;52.684;9.918;2023-02-01T23:09:23;15.33;;;4.23;;
8113;SDS011;4099;52.684;9.918;2023-02-01T23:14:30;16.17;;;4.70;;
8113;SDS011;4099;52.684;9.918;2023-02-01T23:19:57;17.27;;;3.10;;
8113;SDS011;4099;52.684;9.918;2023-02-01T23:25:00;16.50;;;3.77;;
8113;SDS011;4099;52.684;9.918;2023-02-01T23:30:05;14.13;;;3.83;;
8113;SDS011;4099;52.684;9.918;2023-02-01T23:35:09;16.70;;;3.50;;
8113;SDS011;4099;52.684;9.918;2023-02-01T23:40:13;14.57;;;4.00;;
8113;SDS011;4099;52.684;9.918;2023-02-01T23:45:18;14.47;;;2.87;;
8113;SDS011;4099;52.684;9.918;2023-02-01T23:50:21;9.47;;;3.03;;
8113;SDS011;4099;52.684;9.918;2023-02-01T23:55:24;12.07;;;3.13;;
